createdAt,value
2023-01-18T00:01:31.732Z,2.78
2023-01-18T00:04:36.731Z,2.88
2023-01-18T00:07:42.413Z,4.10
2023-01-18T00:10:51.136Z,4.30
2023-01-18T00:13:57.029Z,3.53
2023-01-18T00:17:04.900Z,3.55
2023-01-18T00:20:11.975Z,4.45
2023-01-18T00:23:17.239Z,4.20
2023-01-18T00:26:24.087Z,4.00
2023-01-18T00:29:32.318Z,4.13
2023-01-18T00:32:42.508Z,4.10
2023-01-18T00:35:47.416Z,4.47
2023-01-18T00:38:54.251Z,3.92
2023-01-18T00:42:11.730Z,3.78
2023-01-18T00:45:19.890Z,3.60
2023-01-18T00:48:29.136Z,4.10
2023-01-18T00:51:34.895Z,3.78
2023-01-18T00:54:40.031Z,4.00
2023-01-18T00:57:47.624Z,4.00
2023-01-18T01:00:59.100Z,3.67
2023-01-18T01:04:21.810Z,3.90
2023-01-18T01:07:29.196Z,3.90
2023-01-18T01:10:37.921Z,4.15
2023-01-18T01:13:55.255Z,4.07
2023-01-18T01:17:13.194Z,3.75
2023-01-18T01:20:33.717Z,4.20
2023-01-18T01:23:54.295Z,4.10
2023-01-18T01:26:59.489Z,4.47
2023-01-18T01:30:08.363Z,4.18
2023-01-18T01:33:13.652Z,4.40
2023-01-18T01:36:26.060Z,4.50
2023-01-18T01:39:31.860Z,4.70
2023-01-18T01:42:37.677Z,3.85
2023-01-18T01:45:42.862Z,4.65
2023-01-18T01:48:51.931Z,3.88
2023-01-18T01:52:01.071Z,3.63
2023-01-18T01:55:09.887Z,4.35
2023-01-18T01:58:16.189Z,5.00
2023-01-18T02:01:21.855Z,4.47
2023-01-18T02:04:27.209Z,3.63
2023-01-18T02:07:35.978Z,5.40
2023-01-18T02:10:41.655Z,4.72
2023-01-18T02:13:47.114Z,5.07
2023-01-18T02:16:57.602Z,5.00
2023-01-18T02:20:20.075Z,4.45
2023-01-18T02:23:35.590Z,2.60
2023-01-18T02:26:52.287Z,4.68
2023-01-18T02:30:15.202Z,5.15
2023-01-18T02:33:22.832Z,4.75
2023-01-18T02:36:29.594Z,5.00
2023-01-18T02:39:38.608Z,5.07
2023-01-18T02:42:57.085Z,4.97
2023-01-18T02:46:20.287Z,6.75
2023-01-18T02:49:27.536Z,5.85
2023-01-18T02:52:40.527Z,4.65
2023-01-18T02:55:51.960Z,5.88
2023-01-18T02:59:03.130Z,6.30
2023-01-18T03:02:17.460Z,5.82
2023-01-18T03:05:27.902Z,5.70
2023-01-18T03:08:38.984Z,5.43
2023-01-18T03:11:49.151Z,5.20
2023-01-18T03:14:58.219Z,5.93
2023-01-18T03:18:09.596Z,5.72
2023-01-18T03:21:14.894Z,5.60
2023-01-18T03:24:19.383Z,5.15
2023-01-18T03:27:36.797Z,6.45
2023-01-18T03:30:55.985Z,6.07
2023-01-18T03:34:05.788Z,5.63
2023-01-18T03:37:13.770Z,5.57
2023-01-18T03:40:23.886Z,6.22
2023-01-18T03:43:36.620Z,5.95
2023-01-18T03:46:45.952Z,6.05
2023-01-18T03:49:54.062Z,6.15
2023-01-18T03:53:03.057Z,5.53
2023-01-18T03:56:10.239Z,4.78
2023-01-18T03:59:16.056Z,5.75
2023-01-18T04:02:23.161Z,5.75
2023-01-18T04:05:34.194Z,5.68
2023-01-18T04:08:40.634Z,4.63
2023-01-18T04:11:46.407Z,5.85
2023-01-18T04:14:54.386Z,4.28
2023-01-18T04:17:59.760Z,6.68
2023-01-18T04:21:09.612Z,5.97
2023-01-18T04:24:16.573Z,5.55
2023-01-18T04:27:26.384Z,5.85
2023-01-18T04:30:33.242Z,5.70
2023-01-18T04:33:44.147Z,6.03
2023-01-18T04:36:52.556Z,5.82
2023-01-18T04:39:58.431Z,5.68
2023-01-18T04:43:04.819Z,5.95
2023-01-18T04:46:10.545Z,5.50
2023-01-18T04:49:17.672Z,5.45
2023-01-18T04:52:26.983Z,5.97
2023-01-18T04:55:32.047Z,4.65
2023-01-18T04:58:40.071Z,5.50
2023-01-18T05:01:48.096Z,5.45
2023-01-18T05:04:53.855Z,4.82
2023-01-18T05:08:13.368Z,4.78
2023-01-18T05:11:19.877Z,4.40
2023-01-18T05:14:26.607Z,6.28
2023-01-18T05:17:34.873Z,4.93
2023-01-18T05:20:39.887Z,5.05
2023-01-18T05:23:48.221Z,5.07
2023-01-18T05:26:56.051Z,4.47
2023-01-18T05:30:05.249Z,4.78
2023-01-18T05:33:12.187Z,4.63
2023-01-18T05:36:17.518Z,4.10
2023-01-18T05:39:27.909Z,4.90
2023-01-18T05:42:33.629Z,4.90
2023-01-18T05:45:39.369Z,5.22
2023-01-18T05:48:45.746Z,4.82
2023-01-18T05:51:50.667Z,4.32
2023-01-18T05:54:59.184Z,4.38
2023-01-18T05:58:04.586Z,4.68
2023-01-18T06:01:15.017Z,4.22
2023-01-18T06:04:23.901Z,4.38
2023-01-18T06:07:29.277Z,4.32
2023-01-18T06:10:41.863Z,4.50
2023-01-18T06:14:01.268Z,4.53
2023-01-18T06:17:07.667Z,5.00
2023-01-18T06:20:15.506Z,4.60
2023-01-18T06:23:20.782Z,5.22
2023-01-18T06:34:49.437Z,4.78
2023-01-18T06:37:56.673Z,4.95
2023-01-18T06:41:04.490Z,4.75
2023-01-18T06:44:13.040Z,5.07
2023-01-18T06:47:23.899Z,4.78
2023-01-18T06:50:34.299Z,5.68
2023-01-18T06:53:44.539Z,5.28
2023-01-18T06:56:50.892Z,5.38
2023-01-18T07:00:02.278Z,5.85
2023-01-18T07:03:11.150Z,5.33
2023-01-18T07:06:18.913Z,6.18
2023-01-18T07:09:25.695Z,6.93
2023-01-18T07:12:32.783Z,7.47
2023-01-18T07:15:41.975Z,6.93
2023-01-18T07:18:48.465Z,8.23
2023-01-18T07:21:56.823Z,7.90
2023-01-18T07:25:02.780Z,7.45
2023-01-18T07:28:09.351Z,7.72
2023-01-18T07:31:18.003Z,7.43
2023-01-18T07:34:26.167Z,8.25
2023-01-18T07:37:34.499Z,7.60
2023-01-18T07:40:40.663Z,8.15
2023-01-18T07:43:48.991Z,6.95
2023-01-18T07:47:00.897Z,6.95
2023-01-18T07:50:10.005Z,6.80
2023-01-18T07:53:15.478Z,6.50
2023-01-18T07:56:23.123Z,6.22
2023-01-18T07:59:31.211Z,6.50
2023-01-18T08:02:42.046Z,6.55
2023-01-18T08:05:58.633Z,7.32
2023-01-18T08:09:07.536Z,7.32
2023-01-18T08:12:18.250Z,7.75
2023-01-18T08:15:26.951Z,6.45
2023-01-18T08:18:35.951Z,7.35
2023-01-18T08:21:43.480Z,7.72
2023-01-18T08:24:52.255Z,6.57
2023-01-18T08:27:59.785Z,6.82
2023-01-18T08:31:09.848Z,6.80
2023-01-18T08:34:18.361Z,7.03
2023-01-18T08:37:25.015Z,8.25
2023-01-18T08:40:37.162Z,7.13
2023-01-18T08:43:44.699Z,7.78
2023-01-18T08:46:51.503Z,8.10
2023-01-18T08:50:00.815Z,8.00
2023-01-18T08:53:07.284Z,8.52
2023-01-18T08:56:14.116Z,7.68
2023-01-18T08:59:20.155Z,8.40
2023-01-18T09:02:31.712Z,8.38
2023-01-18T09:05:43.698Z,7.95
2023-01-18T09:08:55.989Z,7.65
2023-01-18T09:12:01.991Z,8.13
2023-01-18T09:15:12.033Z,8.80
2023-01-18T09:18:17.186Z,8.20
2023-01-18T09:21:29.384Z,8.27
2023-01-18T09:24:35.076Z,8.38
2023-01-18T09:27:42.614Z,8.52
2023-01-18T09:30:50.200Z,8.55
2023-01-18T09:34:17.490Z,7.82
2023-01-18T09:37:34.432Z,7.68
2023-01-18T09:40:48.529Z,9.73
2023-01-18T09:44:03.248Z,16.40
2023-01-18T09:47:22.522Z,20.13
2023-01-18T09:50:29.440Z,19.48
2023-01-18T09:53:45.962Z,13.07
2023-01-18T09:56:57.931Z,9.40
2023-01-18T10:00:07.222Z,10.50
2023-01-18T10:03:19.528Z,26.85
2023-01-18T10:06:27.338Z,15.30
2023-01-18T10:09:37.729Z,10.07
2023-01-18T10:12:47.517Z,8.95
2023-01-18T10:15:53.221Z,9.32
2023-01-18T10:19:08.652Z,13.82
2023-01-18T10:22:20.569Z,11.40
2023-01-18T10:25:35.831Z,11.45
2023-01-18T10:28:49.973Z,9.02
2023-01-18T10:31:58.729Z,11.40
2023-01-18T10:35:05.162Z,16.83
2023-01-18T10:38:12.285Z,13.15
2023-01-18T10:41:22.648Z,13.40
2023-01-18T10:44:28.418Z,9.65
2023-01-18T10:47:34.795Z,9.80
2023-01-18T10:50:42.587Z,8.77
2023-01-18T10:53:49.436Z,8.73
2023-01-18T10:57:09.174Z,9.63
2023-01-18T11:00:22.129Z,8.07
2023-01-18T11:03:29.235Z,9.13
2023-01-18T11:06:34.980Z,9.27
2023-01-18T11:09:43.667Z,9.18
2023-01-18T11:12:54.539Z,8.27
2023-01-18T11:16:07.585Z,9.65
2023-01-18T11:19:20.217Z,8.85
2023-01-18T11:22:29.746Z,9.25
2023-01-18T11:25:40.273Z,8.50
2023-01-18T11:28:54.879Z,9.15
2023-01-18T11:32:05.498Z,8.93
2023-01-18T11:35:12.622Z,8.65
2023-01-18T11:38:22.123Z,10.55
2023-01-18T11:41:32.420Z,10.15
2023-01-18T11:44:44.809Z,8.65
2023-01-18T11:51:00.377Z,9.20
2023-01-18T11:54:09.460Z,9.50
2023-01-18T11:57:14.805Z,8.95
2023-01-18T12:00:29.469Z,8.27
2023-01-18T12:03:52.720Z,8.77
2023-01-18T12:07:07.996Z,8.75
2023-01-18T12:10:21.673Z,8.82
2023-01-18T12:13:37.733Z,9.23
2023-01-18T12:16:56.854Z,9.55
2023-01-18T12:20:08.369Z,10.10
2023-01-18T12:23:25.759Z,10.43
2023-01-18T12:26:36.845Z,12.13
2023-01-18T12:30:03.847Z,13.65
2023-01-18T12:33:16.535Z,13.38
2023-01-18T12:36:39.347Z,12.40
2023-01-18T12:40:07.910Z,12.10
2023-01-18T12:43:22.376Z,11.55
2023-01-18T12:46:31.854Z,11.45
2023-01-18T12:49:43.839Z,10.82
2023-01-18T12:52:59.649Z,8.60
2023-01-18T12:56:11.327Z,9.77
2023-01-18T12:59:18.918Z,9.52
2023-01-18T13:02:34.564Z,8.95
2023-01-18T13:05:53.668Z,7.95
2023-01-18T13:09:01.683Z,9.10
2023-01-18T13:12:08.808Z,8.50
2023-01-18T13:15:21.466Z,8.88
2023-01-18T13:18:28.245Z,9.25
2023-01-18T13:21:46.427Z,8.90
2023-01-18T13:24:58.461Z,8.45
2023-01-18T13:28:05.735Z,8.75
2023-01-18T13:31:14.256Z,7.82
2023-01-18T13:34:44.904Z,8.60
2023-01-18T13:37:58.851Z,9.07
2023-01-18T13:41:05.726Z,8.60
2023-01-18T13:44:32.695Z,9.32
2023-01-18T13:47:53.239Z,9.68
2023-01-18T13:50:59.496Z,9.18
2023-01-18T13:54:08.322Z,9.30
2023-01-18T13:57:19.478Z,8.95
2023-01-18T14:00:26.591Z,10.45
2023-01-18T14:03:33.955Z,9.38
2023-01-18T14:06:42.028Z,9.30
2023-01-18T14:09:52.062Z,9.88
2023-01-18T14:12:58.659Z,9.77
2023-01-18T14:16:07.169Z,9.50
2023-01-18T14:19:18.952Z,10.25
2023-01-18T14:22:33.685Z,10.10
2023-01-18T14:25:59.524Z,10.25
2023-01-18T14:29:15.511Z,9.52
2023-01-18T14:32:23.527Z,11.10
2023-01-18T14:35:29.372Z,11.98
2023-01-18T14:38:35.080Z,12.52
2023-01-18T14:41:46.931Z,12.02
2023-01-18T14:44:58.664Z,12.15
2023-01-18T14:48:14.421Z,14.27
2023-01-18T14:51:22.450Z,12.98
2023-01-18T14:54:28.499Z,12.13
2023-01-18T14:57:40.650Z,11.90
2023-01-18T15:00:50.040Z,11.02
2023-01-18T15:03:59.139Z,11.88
2023-01-18T15:07:07.141Z,13.30
2023-01-18T15:10:13.071Z,13.38
2023-01-18T15:13:26.779Z,12.85
2023-01-18T15:16:34.250Z,13.38
2023-01-18T15:19:42.975Z,11.73
2023-01-18T15:22:52.407Z,11.48
2023-01-18T15:25:59.763Z,12.48
2023-01-18T15:29:16.678Z,12.95
2023-01-18T15:32:31.074Z,13.48
2023-01-18T15:35:40.614Z,12.32
2023-01-18T15:38:48.035Z,14.15
2023-01-18T15:41:57.173Z,14.18
2023-01-18T15:45:13.192Z,13.38
2023-01-18T15:48:22.760Z,13.07
2023-01-18T15:51:43.073Z,13.80
2023-01-18T15:54:52.723Z,15.30
2023-01-18T15:58:01.293Z,13.18
2023-01-18T16:01:10.849Z,14.20
2023-01-18T16:04:23.436Z,15.02
2023-01-18T16:07:39.077Z,12.93
2023-01-18T16:10:50.329Z,16.15
2023-01-18T16:17:09.858Z,15.20
2023-01-18T16:20:19.406Z,18.00
2023-01-18T16:23:26.549Z,16.55
2023-01-18T16:26:34.563Z,18.58
2023-01-18T16:29:44.890Z,17.85
2023-01-18T16:32:53.115Z,16.90
2023-01-18T16:35:58.923Z,18.33
2023-01-18T16:39:07.214Z,18.67
2023-01-18T16:42:13.646Z,20.02
2023-01-18T16:45:19.915Z,21.13
2023-01-18T16:48:29.341Z,19.08
2023-01-18T16:51:34.765Z,20.15
2023-01-18T16:54:40.365Z,19.13
2023-01-18T16:57:46.114Z,17.00
2023-01-18T17:00:54.091Z,17.55
2023-01-18T17:04:03.383Z,16.63
2023-01-18T17:07:09.748Z,16.45
2023-01-18T17:10:21.693Z,13.82
2023-01-18T17:13:27.367Z,17.95
2023-01-18T17:16:33.493Z,17.00
2023-01-18T17:19:45.556Z,15.80
2023-01-18T17:22:50.844Z,16.27
2023-01-18T17:25:56.603Z,16.58
2023-01-18T17:29:04.441Z,18.65
2023-01-18T17:32:10.594Z,18.33
2023-01-18T17:35:18.825Z,16.08
2023-01-18T17:38:28.835Z,14.68
2023-01-18T17:41:39.849Z,15.15
2023-01-18T17:44:46.103Z,14.90
2023-01-18T17:47:54.762Z,15.10
2023-01-18T17:51:03.893Z,14.77
2023-01-18T17:54:13.401Z,16.23
2023-01-18T17:57:30.036Z,14.05
2023-01-18T18:00:37.885Z,16.20
2023-01-18T18:03:44.301Z,15.75
2023-01-18T18:06:58.665Z,14.68
2023-01-18T18:10:07.781Z,14.07
2023-01-18T18:13:12.940Z,15.10
2023-01-18T18:16:46.025Z,13.63
2023-01-18T18:23:36.896Z,15.07
2023-01-18T18:26:44.397Z,15.98
2023-01-18T18:29:51.689Z,13.85
2023-01-18T18:32:59.944Z,15.98
2023-01-18T18:36:06.134Z,17.83
2023-01-18T18:39:14.258Z,18.05
2023-01-18T18:42:20.102Z,18.20
2023-01-18T18:45:25.280Z,18.30
2023-01-18T18:48:31.046Z,18.48
2023-01-18T18:51:36.444Z,18.80
2023-01-18T18:54:45.092Z,19.77
2023-01-18T18:57:54.250Z,14.70
2023-01-18T19:01:00.920Z,19.15
2023-01-18T19:04:06.169Z,19.10
2023-01-18T19:07:12.240Z,20.27
2023-01-18T19:10:21.792Z,20.20
2023-01-18T19:13:31.011Z,19.25
2023-01-18T19:16:38.974Z,20.35
2023-01-18T19:19:46.676Z,19.80
2023-01-18T19:22:53.826Z,19.10
2023-01-18T19:26:04.926Z,19.58
2023-01-18T19:29:13.152Z,19.52
2023-01-18T19:32:21.710Z,19.33
2023-01-18T19:35:28.013Z,20.83
2023-01-18T19:41:56.245Z,19.00
2023-01-18T19:45:06.917Z,20.55
2023-01-18T19:48:12.985Z,19.38
2023-01-18T19:51:22.893Z,17.90
2023-01-18T19:54:28.549Z,21.42
2023-01-18T19:57:52.611Z,20.45
2023-01-18T20:01:03.758Z,21.10
2023-01-18T20:04:09.853Z,21.10
2023-01-18T20:07:16.532Z,19.80
2023-01-18T20:10:26.336Z,18.75
2023-01-18T20:14:02.401Z,20.88
2023-01-18T20:17:15.668Z,19.75
2023-01-18T20:20:32.585Z,19.73
2023-01-18T20:23:38.499Z,19.95
2023-01-18T20:26:49.834Z,16.67
2023-01-18T20:30:03.393Z,17.92
2023-01-18T20:33:14.424Z,17.95
2023-01-18T20:36:33.668Z,9.98
2023-01-18T20:39:43.027Z,17.55
2023-01-18T20:42:58.620Z,14.75
2023-01-18T20:46:08.657Z,11.25
2023-01-18T20:49:36.764Z,15.65
2023-01-18T20:52:50.836Z,14.45
2023-01-18T20:56:28.477Z,16.88
2023-01-18T20:59:34.958Z,14.73
2023-01-18T21:02:42.825Z,17.45
2023-01-18T21:05:58.412Z,16.63
2023-01-18T21:09:26.012Z,14.05
2023-01-18T21:12:34.413Z,16.10
2023-01-18T21:15:42.172Z,17.70
2023-01-18T21:18:59.396Z,11.48
2023-01-18T21:22:12.104Z,11.07
2023-01-18T21:25:20.858Z,14.00
2023-01-18T21:28:30.453Z,13.35
2023-01-18T21:31:48.954Z,14.63
2023-01-18T21:35:01.572Z,15.23
2023-01-18T21:38:13.144Z,13.52
2023-01-18T21:41:37.186Z,14.07
2023-01-18T21:44:55.975Z,14.75
2023-01-18T21:48:02.902Z,9.73
2023-01-18T21:51:34.566Z,9.68
2023-01-18T21:54:47.452Z,13.65
2023-01-18T21:58:11.781Z,10.50
2023-01-18T22:01:19.441Z,12.25
2023-01-18T22:04:37.265Z,12.95
2023-01-18T22:07:44.429Z,14.63
2023-01-18T22:10:58.717Z,15.30
2023-01-18T22:14:07.900Z,13.23
2023-01-18T22:17:16.694Z,14.30
2023-01-18T22:20:21.949Z,12.85
2023-01-18T22:23:30.053Z,14.55
2023-01-18T22:26:39.212Z,14.25
2023-01-18T22:29:49.119Z,15.68
2023-01-18T22:32:57.159Z,14.85
2023-01-18T22:36:04.838Z,15.70
2023-01-18T22:39:12.749Z,15.48
2023-01-18T22:42:20.960Z,13.40
2023-01-18T22:45:26.203Z,15.35
2023-01-18T22:48:38.385Z,14.70
2023-01-18T22:51:46.476Z,12.65
2023-01-18T22:54:56.959Z,11.70
2023-01-18T22:58:04.753Z,14.80
2023-01-18T23:01:17.030Z,12.40
2023-01-18T23:04:24.755Z,14.85
2023-01-18T23:07:40.560Z,13.73
2023-01-18T23:10:45.723Z,13.95
2023-01-18T23:14:07.842Z,14.10
2023-01-18T23:17:26.640Z,14.10
2023-01-18T23:20:33.462Z,13.30
2023-01-18T23:23:40.965Z,13.80
2023-01-18T23:27:02.406Z,14.93
2023-01-18T23:33:15.728Z,14.25
2023-01-18T23:36:23.766Z,12.15
2023-01-18T23:39:42.904Z,12.90
2023-01-18T23:43:00.485Z,10.75
2023-01-18T23:46:18.543Z,12.05
2023-01-18T23:49:39.579Z,12.00
2023-01-18T23:52:57.635Z,12.23
2023-01-18T23:56:03.717Z,13.55
2023-01-18T23:59:14.451Z,11.63
